sensor_id;sensor_type;location;lat;lon;timestamp;temperature;humidity
20862;DHT22;10591;52.532;13.348;2022-12-17T00:00:48;-1.44;86.75
20862;DHT22;10591;52.532;13.348;2022-12-17T00:03:37;-1.52;87.17
20862;DHT22;10591;52.532;13.348;2022-12-17T00:06:27;-1.44;87.17
20862;DHT22;10591;52.532;13.348;2022-12-17T00:09:17;-1.40;87.18
20862;DHT22;10591;52.532;13.348;2022-12-17T00:12:06;-1.36;87.00
20862;DHT22;10591;52.532;13.348;2022-12-17T00:14:54;-1.36;86.89
20862;DHT22;10591;52.532;13.348;2022-12-17T00:17:43;-1.44;86.98
20862;DHT22;10591;52.532;13.348;2022-12-17T00:20:31;-1.34;86.88
20862;DHT22;10591;52.532;13.348;2022-12-17T00:23:22;-1.32;87.05
20862;DHT22;10591;52.532;13.348;2022-12-17T00:26:10;-1.53;87.19
20862;DHT22;10591;52.532;13.348;2022-12-17T00:29:00;-1.70;87.84
20862;DHT22;10591;52.532;13.348;2022-12-17T00:31:50;-1.53;87.97
20862;DHT22;10591;52.532;13.348;2022-12-17T00:34:41;-1.60;88.14
20862;DHT22;10591;52.532;13.348;2022-12-17T00:37:31;-1.60;88.25
20862;DHT22;10591;52.532;13.348;2022-12-17T00:40:24;-1.70;88.44
20862;DHT22;10591;52.532;13.348;2022-12-17T00:43:13;-1.72;88.73
20862;DHT22;10591;52.532;13.348;2022-12-17T00:46:02;-1.68;88.66
20862;DHT22;10591;52.532;13.348;2022-12-17T00:48:54;-1.72;88.69
20862;DHT22;10591;52.532;13.348;2022-12-17T00:51:45;-1.60;88.68
20862;DHT22;10591;52.532;13.348;2022-12-17T00:54:34;-1.58;88.71
20862;DHT22;10591;52.532;13.348;2022-12-17T00:57:24;-1.54;88.62
20862;DHT22;10591;52.532;13.348;2022-12-17T01:00:12;-1.43;88.50
20862;DHT22;10591;52.532;13.348;2022-12-17T01:03:06;-1.41;88.31
20862;DHT22;10591;52.532;13.348;2022-12-17T01:05:59;-1.50;88.25
20862;DHT22;10591;52.532;13.348;2022-12-17T01:08:47;-1.54;88.41
20862;DHT22;10591;52.532;13.348;2022-12-17T01:11:36;-1.36;88.43
20862;DHT22;10591;52.532;13.348;2022-12-17T01:14:25;-1.62;88.26
20862;DHT22;10591;52.532;13.348;2022-12-17T01:17:14;-1.72;88.40
20862;DHT22;10591;52.532;13.348;2022-12-17T01:20:03;-1.75;88.52
20862;DHT22;10591;52.532;13.348;2022-12-17T01:22:53;-1.73;88.65
20862;DHT22;10591;52.532;13.348;2022-12-17T01:25:50;-1.76;88.56
20862;DHT22;10591;52.532;13.348;2022-12-17T01:28:32;-1.80;88.59
20862;DHT22;10591;52.532;13.348;2022-12-17T01:31:22;-1.70;88.66
20862;DHT22;10591;52.532;13.348;2022-12-17T01:34:10;-1.78;88.70
20862;DHT22;10591;52.532;13.348;2022-12-17T01:36:58;-1.68;88.56
20862;DHT22;10591;52.532;13.348;2022-12-17T01:39:47;-1.88;88.65
20862;DHT22;10591;52.532;13.348;2022-12-17T01:42:43;-2.00;88.87
20862;DHT22;10591;52.532;13.348;2022-12-17T01:45:45;-2.04;89.06
20862;DHT22;10591;52.532;13.348;2022-12-17T01:48:40;-1.90;89.22
20862;DHT22;10591;52.532;13.348;2022-12-17T01:51:31;-2.00;89.16
20862;DHT22;10591;52.532;13.348;2022-12-17T01:54:20;-2.03;89.21
20862;DHT22;10591;52.532;13.348;2022-12-17T01:57:10;-1.99;89.16
20862;DHT22;10591;52.532;13.348;2022-12-17T02:00:05;-2.07;89.30
20862;DHT22;10591;52.532;13.348;2022-12-17T02:02:54;-2.16;89.30
20862;DHT22;10591;52.532;13.348;2022-12-17T02:09:11;-2.22;89.51
20862;DHT22;10591;52.532;13.348;2022-12-17T02:15:17;-2.10;89.56
20862;DHT22;10591;52.532;13.348;2022-12-17T02:18:18;-2.04;89.52
20862;DHT22;10591;52.532;13.348;2022-12-17T02:21:10;-2.16;89.24
20862;DHT22;10591;52.532;13.348;2022-12-17T02:24:09;-2.04;89.23
20862;DHT22;10591;52.532;13.348;2022-12-17T02:27:03;-2.00;89.32
20862;DHT22;10591;52.532;13.348;2022-12-17T02:30:05;-2.19;89.44
20862;DHT22;10591;52.532;13.348;2022-12-17T02:32:52;-2.32;89.54
20862;DHT22;10591;52.532;13.348;2022-12-17T02:35:52;-2.48;89.80
20862;DHT22;10591;52.532;13.348;2022-12-17T02:38:40;-2.38;89.91
20862;DHT22;10591;52.532;13.348;2022-12-17T02:41:31;-2.32;89.93
20862;DHT22;10591;52.532;13.348;2022-12-17T02:44:21;-2.48;89.96
20862;DHT22;10591;52.532;13.348;2022-12-17T02:47:13;-2.52;90.03
20862;DHT22;10591;52.532;13.348;2022-12-17T02:50:01;-2.53;90.16
20862;DHT22;10591;52.532;13.348;2022-12-17T02:52:51;-2.38;90.28
20862;DHT22;10591;52.532;13.348;2022-12-17T02:55:41;-2.42;90.09
20862;DHT22;10591;52.532;13.348;2022-12-17T02:58:31;-2.43;90.10
20862;DHT22;10591;52.532;13.348;2022-12-17T03:01:20;-2.52;90.16
20862;DHT22;10591;52.532;13.348;2022-12-17T03:04:11;-2.46;90.25
20862;DHT22;10591;52.532;13.348;2022-12-17T03:07:01;-2.42;90.23
20862;DHT22;10591;52.532;13.348;2022-12-17T03:09:50;-2.26;90.21
20862;DHT22;10591;52.532;13.348;2022-12-17T03:12:34;-2.31;90.05
20862;DHT22;10591;52.532;13.348;2022-12-17T03:15:23;-2.36;90.08
20862;DHT22;10591;52.532;13.348;2022-12-17T03:18:13;-2.39;90.07
20862;DHT22;10591;52.532;13.348;2022-12-17T03:21:02;-2.53;90.14
20862;DHT22;10591;52.532;13.348;2022-12-17T03:23:52;-2.58;90.31
20862;DHT22;10591;52.532;13.348;2022-12-17T03:26:41;-2.50;90.43
20862;DHT22;10591;52.532;13.348;2022-12-17T03:29:30;-2.40;90.44
20862;DHT22;10591;52.532;13.348;2022-12-17T03:32:19;-2.41;90.36
20862;DHT22;10591;52.532;13.348;2022-12-17T03:35:08;-2.32;90.26
20862;DHT22;10591;52.532;13.348;2022-12-17T03:37:58;-2.36;90.12
20862;DHT22;10591;52.532;13.348;2022-12-17T03:40:50;-2.26;90.18
20862;DHT22;10591;52.532;13.348;2022-12-17T03:43:40;-2.39;90.03
20862;DHT22;10591;52.532;13.348;2022-12-17T03:46:30;-2.46;90.09
20862;DHT22;10591;52.532;13.348;2022-12-17T03:49:17;-2.34;90.17
20862;DHT22;10591;52.532;13.348;2022-12-17T03:52:07;-2.34;90.17
20862;DHT22;10591;52.532;13.348;2022-12-17T03:54:58;-2.34;90.17
20862;DHT22;10591;52.532;13.348;2022-12-17T03:57:47;-2.26;90.11
20862;DHT22;10591;52.532;13.348;2022-12-17T04:00:38;-2.32;90.11
20862;DHT22;10591;52.532;13.348;2022-12-17T04:03:27;-2.30;90.22
20862;DHT22;10591;52.532;13.348;2022-12-17T04:06:17;-2.33;90.21
20862;DHT22;10591;52.532;13.348;2022-12-17T04:09:07;-2.28;90.19
20862;DHT22;10591;52.532;13.348;2022-12-17T04:11:56;-2.32;90.17
20862;DHT22;10591;52.532;13.348;2022-12-17T04:14:46;-2.26;90.19
20862;DHT22;10591;52.532;13.348;2022-12-17T04:17:35;-2.30;90.14
20862;DHT22;10591;52.532;13.348;2022-12-17T04:20:14;-2.10;90.15
20862;DHT22;10591;52.532;13.348;2022-12-17T04:23:03;-2.24;90.03
20862;DHT22;10591;52.532;13.348;2022-12-17T04:25:51;-2.14;90.06
20862;DHT22;10591;52.532;13.348;2022-12-17T04:28:40;-2.22;89.90
20862;DHT22;10591;52.532;13.348;2022-12-17T04:31:33;-2.22;89.91
20862;DHT22;10591;52.532;13.348;2022-12-17T04:34:22;-2.24;89.75
20862;DHT22;10591;52.532;13.348;2022-12-17T04:37:10;-2.10;89.78
20862;DHT22;10591;52.532;13.348;2022-12-17T04:40:01;-2.23;89.69
20862;DHT22;10591;52.532;13.348;2022-12-17T04:42:50;-2.16;89.67
20862;DHT22;10591;52.532;13.348;2022-12-17T04:45:38;-2.25;89.54
20862;DHT22;10591;52.532;13.348;2022-12-17T04:48:28;-2.22;89.59
20862;DHT22;10591;52.532;13.348;2022-12-17T04:51:19;-2.29;89.74
20862;DHT22;10591;52.532;13.348;2022-12-17T04:54:08;-2.38;89.80
20862;DHT22;10591;52.532;13.348;2022-12-17T04:56:57;-2.39;89.71
20862;DHT22;10591;52.532;13.348;2022-12-17T04:59:45;-2.44;89.55
20862;DHT22;10591;52.532;13.348;2022-12-17T05:02:33;-2.55;89.38
20862;DHT22;10591;52.532;13.348;2022-12-17T05:05:25;-2.43;89.45
20862;DHT22;10591;52.532;13.348;2022-12-17T05:08:14;-2.48;89.56
20862;DHT22;10591;52.532;13.348;2022-12-17T05:11:05;-2.30;89.57
20862;DHT22;10591;52.532;13.348;2022-12-17T05:13:53;-2.26;89.49
20862;DHT22;10591;52.532;13.348;2022-12-17T05:16:42;-2.30;89.46
20862;DHT22;10591;52.532;13.348;2022-12-17T05:19:31;-2.25;89.41
20862;DHT22;10591;52.532;13.348;2022-12-17T05:22:19;-2.24;89.34
20862;DHT22;10591;52.532;13.348;2022-12-17T05:25:08;-2.08;89.28
20862;DHT22;10591;52.532;13.348;2022-12-17T05:27:57;-2.02;89.17
20862;DHT22;10591;52.532;13.348;2022-12-17T05:30:53;-2.20;89.06
20862;DHT22;10591;52.532;13.348;2022-12-17T05:33:44;-1.96;88.96
20862;DHT22;10591;52.532;13.348;2022-12-17T05:36:32;-2.04;88.73
20862;DHT22;10591;52.532;13.348;2022-12-17T05:39:21;-2.04;88.85
20862;DHT22;10591;52.532;13.348;2022-12-17T05:42:10;-2.11;88.65
20862;DHT22;10591;52.532;13.348;2022-12-17T05:44:59;-2.23;88.72
20862;DHT22;10591;52.532;13.348;2022-12-17T05:47:47;-2.29;88.69
20862;DHT22;10591;52.532;13.348;2022-12-17T05:50:36;-2.16;88.66
20862;DHT22;10591;52.532;13.348;2022-12-17T05:53:14;-2.26;88.59
20862;DHT22;10591;52.532;13.348;2022-12-17T05:56:03;-2.35;88.76
20862;DHT22;10591;52.532;13.348;2022-12-17T05:58:51;-2.32;88.66
20862;DHT22;10591;52.532;13.348;2022-12-17T06:01:41;-2.34;88.53
20862;DHT22;10591;52.532;13.348;2022-12-17T06:04:30;-2.59;88.67
20862;DHT22;10591;52.532;13.348;2022-12-17T06:07:18;-2.66;88.82
20862;DHT22;10591;52.532;13.348;2022-12-17T06:10:08;-2.64;88.95
20862;DHT22;10591;52.532;13.348;2022-12-17T06:12:58;-2.66;88.98
20862;DHT22;10591;52.532;13.348;2022-12-17T06:15:40;-2.57;89.09
20862;DHT22;10591;52.532;13.348;2022-12-17T06:18:28;-2.44;89.00
20862;DHT22;10591;52.532;13.348;2022-12-17T06:21:17;-2.49;88.74
20862;DHT22;10591;52.532;13.348;2022-12-17T06:24:05;-2.37;88.71
20862;DHT22;10591;52.532;13.348;2022-12-17T06:26:55;-2.51;88.61
20862;DHT22;10591;52.532;13.348;2022-12-17T06:29:44;-2.60;88.71
20862;DHT22;10591;52.532;13.348;2022-12-17T06:32:34;-2.70;88.93
20862;DHT22;10591;52.532;13.348;2022-12-17T06:35:23;-2.49;88.98
20862;DHT22;10591;52.532;13.348;2022-12-17T06:38:11;-2.40;88.68
20862;DHT22;10591;52.532;13.348;2022-12-17T06:41:01;-2.42;88.76
20862;DHT22;10591;52.532;13.348;2022-12-17T06:43:48;-2.40;88.60
20862;DHT22;10591;52.532;13.348;2022-12-17T06:46:37;-2.54;88.48
20862;DHT22;10591;52.532;13.348;2022-12-17T06:49:26;-2.54;88.69
20862;DHT22;10591;52.532;13.348;2022-12-17T06:52:16;-2.40;88.72
20862;DHT22;10591;52.532;13.348;2022-12-17T06:55:05;-2.13;88.42
20862;DHT22;10591;52.532;13.348;2022-12-17T06:57:56;-2.54;88.23
20862;DHT22;10591;52.532;13.348;2022-12-17T07:01:12;-2.46;88.21
20862;DHT22;10591;52.532;13.348;2022-12-17T07:04:03;-2.36;88.24
20862;DHT22;10591;52.532;13.348;2022-12-17T07:06:52;-2.36;87.98
20862;DHT22;10591;52.532;13.348;2022-12-17T07:09:41;-2.32;87.95
20862;DHT22;10591;52.532;13.348;2022-12-17T07:12:30;-2.22;87.81
20862;DHT22;10591;52.532;13.348;2022-12-17T07:15:18;-2.13;87.83
20862;DHT22;10591;52.532;13.348;2022-12-17T07:18:08;-2.22;87.65
20862;DHT22;10591;52.532;13.348;2022-12-17T07:20:57;-2.14;87.66
20862;DHT22;10591;52.532;13.348;2022-12-17T07:23:45;-2.34;87.70
20862;DHT22;10591;52.532;13.348;2022-12-17T07:26:33;-2.20;87.77
20862;DHT22;10591;52.532;13.348;2022-12-17T07:29:24;-2.18;87.63
20862;DHT22;10591;52.532;13.348;2022-12-17T07:32:13;-2.22;87.90
20862;DHT22;10591;52.532;13.348;2022-12-17T07:35:01;-2.20;87.38
20862;DHT22;10591;52.532;13.348;2022-12-17T07:37:56;-2.12;87.37
20862;DHT22;10591;52.532;13.348;2022-12-17T07:40:39;-1.90;87.22
20862;DHT22;10591;52.532;13.348;2022-12-17T07:43:28;-2.20;86.79
20862;DHT22;10591;52.532;13.348;2022-12-17T07:46:19;-2.32;86.95
20862;DHT22;10591;52.532;13.348;2022-12-17T07:49:07;-2.38;87.27
20862;DHT22;10591;52.532;13.348;2022-12-17T07:51:57;-2.44;87.50
20862;DHT22;10591;52.532;13.348;2022-12-17T07:54:45;-2.32;87.41
20862;DHT22;10591;52.532;13.348;2022-12-17T07:57:35;-2.28;87.50
20862;DHT22;10591;52.532;13.348;2022-12-17T08:00:24;-2.12;87.38
20862;DHT22;10591;52.532;13.348;2022-12-17T08:03:14;-2.06;87.22
20862;DHT22;10591;52.532;13.348;2022-12-17T08:06:05;-2.12;86.64
20862;DHT22;10591;52.532;13.348;2022-12-17T08:08:55;-2.00;86.77
20862;DHT22;10591;52.532;13.348;2022-12-17T08:11:43;-2.38;86.59
20862;DHT22;10591;52.532;13.348;2022-12-17T08:14:32;-2.50;86.72
20862;DHT22;10591;52.532;13.348;2022-12-17T08:17:20;-2.56;87.04
20862;DHT22;10591;52.532;13.348;2022-12-17T08:20:10;-2.66;87.40
20862;DHT22;10591;52.532;13.348;2022-12-17T08:23:04;-2.60;87.59
20862;DHT22;10591;52.532;13.348;2022-12-17T08:25:52;-2.32;87.75
20862;DHT22;10591;52.532;13.348;2022-12-17T08:28:41;-2.24;87.47
20862;DHT22;10591;52.532;13.348;2022-12-17T08:31:31;-2.44;87.16
20862;DHT22;10591;52.532;13.348;2022-12-17T08:34:20;-2.28;87.25
20862;DHT22;10591;52.532;13.348;2022-12-17T08:37:08;-2.16;86.85
20862;DHT22;10591;52.532;13.348;2022-12-17T08:39:59;-2.20;86.89
20862;DHT22;10591;52.532;13.348;2022-12-17T08:42:47;-2.16;86.78
20862;DHT22;10591;52.532;13.348;2022-12-17T08:45:36;-2.20;86.38
20862;DHT22;10591;52.532;13.348;2022-12-17T08:48:25;-2.25;86.39
20862;DHT22;10591;52.532;13.348;2022-12-17T08:51:14;-2.10;86.64
20862;DHT22;10591;52.532;13.348;2022-12-17T08:54:04;-1.96;86.14
20862;DHT22;10591;52.532;13.348;2022-12-17T08:56:54;-1.90;86.20
20862;DHT22;10591;52.532;13.348;2022-12-17T08:59:44;-1.73;85.94
20862;DHT22;10591;52.532;13.348;2022-12-17T09:02:33;-1.74;85.90
20862;DHT22;10591;52.532;13.348;2022-12-17T09:05:22;-2.00;85.96
20862;DHT22;10591;52.532;13.348;2022-12-17T09:08:12;-2.24;86.03
20862;DHT22;10591;52.532;13.348;2022-12-17T09:11:00;-2.43;87.23
20862;DHT22;10591;52.532;13.348;2022-12-17T09:13:49;-2.47;87.49
20862;DHT22;10591;52.532;13.348;2022-12-17T09:16:38;-2.54;87.86
20862;DHT22;10591;52.532;13.348;2022-12-17T09:19:27;-2.50;87.74
20862;DHT22;10591;52.532;13.348;2022-12-17T09:22:18;-2.64;87.90
20862;DHT22;10591;52.532;13.348;2022-12-17T09:25:07;-2.26;87.88
20862;DHT22;10591;52.532;13.348;2022-12-17T09:28:00;-2.36;87.61
20862;DHT22;10591;52.532;13.348;2022-12-17T09:30:49;-2.20;87.31
20862;DHT22;10591;52.532;13.348;2022-12-17T09:33:38;-2.01;86.89
20862;DHT22;10591;52.532;13.348;2022-12-17T09:36:28;-2.33;86.88
20862;DHT22;10591;52.532;13.348;2022-12-17T09:39:18;-2.36;86.91
20862;DHT22;10591;52.532;13.348;2022-12-17T09:42:25;-2.09;86.87
20862;DHT22;10591;52.532;13.348;2022-12-17T09:45:19;-2.14;86.73
20862;DHT22;10591;52.532;13.348;2022-12-17T09:48:19;-2.04;86.59
20862;DHT22;10591;52.532;13.348;2022-12-17T09:51:22;-1.66;86.28
20862;DHT22;10591;52.532;13.348;2022-12-17T09:54:35;-1.77;85.74
20862;DHT22;10591;52.532;13.348;2022-12-17T09:57:04;-1.47;85.58
20862;DHT22;10591;52.532;13.348;2022-12-17T09:59:56;-1.62;85.37
20862;DHT22;10591;52.532;13.348;2022-12-17T10:02:45;-1.78;85.55
20862;DHT22;10591;52.532;13.348;2022-12-17T10:05:38;-1.68;85.50
20862;DHT22;10591;52.532;13.348;2022-12-17T10:08:27;-1.50;85.32
20862;DHT22;10591;52.532;13.348;2022-12-17T10:11:26;-1.84;84.83
20862;DHT22;10591;52.532;13.348;2022-12-17T10:14:22;-2.20;86.13
20862;DHT22;10591;52.532;13.348;2022-12-17T10:17:23;-2.22;86.63
20862;DHT22;10591;52.532;13.348;2022-12-17T10:21:09;-2.14;86.74
20862;DHT22;10591;52.532;13.348;2022-12-17T10:23:28;-2.34;86.69
20862;DHT22;10591;52.532;13.348;2022-12-17T10:26:19;-2.00;86.18
20862;DHT22;10591;52.532;13.348;2022-12-17T10:29:16;-1.68;86.22
20862;DHT22;10591;52.532;13.348;2022-12-17T10:35:22;-2.18;86.19
20862;DHT22;10591;52.532;13.348;2022-12-17T10:38:18;-2.11;86.34
20862;DHT22;10591;52.532;13.348;2022-12-17T10:41:02;-1.90;86.28
20862;DHT22;10591;52.532;13.348;2022-12-17T10:43:52;-1.78;86.25
20862;DHT22;10591;52.532;13.348;2022-12-17T10:46:42;-1.44;85.35
20862;DHT22;10591;52.532;13.348;2022-12-17T10:49:32;-1.66;85.23
20862;DHT22;10591;52.532;13.348;2022-12-17T10:52:28;-1.64;85.28
20862;DHT22;10591;52.532;13.348;2022-12-17T10:55:25;-1.58;85.02
20862;DHT22;10591;52.532;13.348;2022-12-17T10:58:25;-1.34;84.43
20862;DHT22;10591;52.532;13.348;2022-12-17T11:01:20;-1.21;84.51
20862;DHT22;10591;52.532;13.348;2022-12-17T11:04:29;-1.44;84.50
20862;DHT22;10591;52.532;13.348;2022-12-17T11:10:15;-1.92;85.48
20862;DHT22;10591;52.532;13.348;2022-12-17T11:13:12;-1.69;85.57
20862;DHT22;10591;52.532;13.348;2022-12-17T11:15:59;-1.66;85.13
20862;DHT22;10591;52.532;13.348;2022-12-17T11:18:51;-1.72;84.91
20862;DHT22;10591;52.532;13.348;2022-12-17T11:21:44;-1.35;84.43
20862;DHT22;10591;52.532;13.348;2022-12-17T11:24:41;-1.60;84.48
20862;DHT22;10591;52.532;13.348;2022-12-17T11:27:32;-1.36;84.65
20862;DHT22;10591;52.532;13.348;2022-12-17T11:30:26;-1.38;83.90
20862;DHT22;10591;52.532;13.348;2022-12-17T11:33:17;-1.44;84.14
20862;DHT22;10591;52.532;13.348;2022-12-17T11:36:32;-1.50;84.13
20862;DHT22;10591;52.532;13.348;2022-12-17T11:42:30;-1.26;84.17
20862;DHT22;10591;52.532;13.348;2022-12-17T11:45:21;-1.34;84.21
20862;DHT22;10591;52.532;13.348;2022-12-17T11:48:15;-1.34;84.07
20862;DHT22;10591;52.532;13.348;2022-12-17T11:51:12;-1.26;84.03
20862;DHT22;10591;52.532;13.348;2022-12-17T11:57:12;-1.10;83.48
20862;DHT22;10591;52.532;13.348;2022-12-17T12:00:20;-1.10;83.93
20862;DHT22;10591;52.532;13.348;2022-12-17T12:03:33;-1.20;83.51
20862;DHT22;10591;52.532;13.348;2022-12-17T12:06:41;-1.50;84.59
20862;DHT22;10591;52.532;13.348;2022-12-17T12:09:37;-1.51;84.79
20862;DHT22;10591;52.532;13.348;2022-12-17T12:12:37;-1.50;84.65
20862;DHT22;10591;52.532;13.348;2022-12-17T12:18:55;-1.82;85.25
20862;DHT22;10591;52.532;13.348;2022-12-17T12:28:02;-2.26;85.82
20862;DHT22;10591;52.532;13.348;2022-12-17T12:33:52;-2.00;86.39
20862;DHT22;10591;52.532;13.348;2022-12-17T12:36:41;-2.02;86.09
20862;DHT22;10591;52.532;13.348;2022-12-17T12:39:37;-2.02;86.17
20862;DHT22;10591;52.532;13.348;2022-12-17T12:42:32;-2.21;86.28
20862;DHT22;10591;52.532;13.348;2022-12-17T12:45:49;-2.04;86.03
20862;DHT22;10591;52.532;13.348;2022-12-17T12:51:48;-1.92;85.59
20862;DHT22;10591;52.532;13.348;2022-12-17T12:54:50;-1.91;85.92
20862;DHT22;10591;52.532;13.348;2022-12-17T13:00:36;-2.52;87.11
20862;DHT22;10591;52.532;13.348;2022-12-17T13:03:31;-2.40;87.70
20862;DHT22;10591;52.532;13.348;2022-12-17T13:09:28;-2.26;87.13
20862;DHT22;10591;52.532;13.348;2022-12-17T13:14:51;-2.08;86.83
20862;DHT22;10591;52.532;13.348;2022-12-17T13:20:33;-1.98;86.08
20862;DHT22;10591;52.532;13.348;2022-12-17T13:23:24;-2.14;86.31
20862;DHT22;10591;52.532;13.348;2022-12-17T13:28:58;-2.08;86.20
20862;DHT22;10591;52.532;13.348;2022-12-17T13:31:56;-2.33;86.71
20862;DHT22;10591;52.532;13.348;2022-12-17T13:34:51;-2.28;87.12
20862;DHT22;10591;52.532;13.348;2022-12-17T13:37:03;-2.18;86.64
20862;DHT22;10591;52.532;13.348;2022-12-17T13:42:33;-2.18;86.92
20862;DHT22;10591;52.532;13.348;2022-12-17T13:45:11;-2.13;86.86
20862;DHT22;10591;52.532;13.348;2022-12-17T13:47:42;-2.38;86.55
20862;DHT22;10591;52.532;13.348;2022-12-17T13:50:20;-2.40;86.95
20862;DHT22;10591;52.532;13.348;2022-12-17T13:53:07;-2.29;86.53
20862;DHT22;10591;52.532;13.348;2022-12-17T13:55:28;-2.47;86.93
20862;DHT22;10591;52.532;13.348;2022-12-17T13:57:59;-2.15;86.96
20862;DHT22;10591;52.532;13.348;2022-12-17T14:00:30;-2.40;86.55
20862;DHT22;10591;52.532;13.348;2022-12-17T14:03:10;-2.44;87.21
20862;DHT22;10591;52.532;13.348;2022-12-17T14:05:42;-2.40;87.16
20862;DHT22;10591;52.532;13.348;2022-12-17T14:08:17;-2.47;87.16
20862;DHT22;10591;52.532;13.348;2022-12-17T14:10:54;-2.56;87.18
20862;DHT22;10591;52.532;13.348;2022-12-17T14:13:44;-2.55;87.57
20862;DHT22;10591;52.532;13.348;2022-12-17T14:16:18;-2.54;87.48
20862;DHT22;10591;52.532;13.348;2022-12-17T14:18:55;-2.62;87.50
20862;DHT22;10591;52.532;13.348;2022-12-17T14:21:27;-2.63;87.75
20862;DHT22;10591;52.532;13.348;2022-12-17T14:23:59;-2.58;87.97
20862;DHT22;10591;52.532;13.348;2022-12-17T14:26:31;-2.78;87.87
20862;DHT22;10591;52.532;13.348;2022-12-17T14:29:03;-2.62;87.87
20862;DHT22;10591;52.532;13.348;2022-12-17T14:31:39;-2.50;87.99
20862;DHT22;10591;52.532;13.348;2022-12-17T14:34:10;-2.53;87.69
20862;DHT22;10591;52.532;13.348;2022-12-17T14:36:44;-2.56;87.64
20862;DHT22;10591;52.532;13.348;2022-12-17T14:39:29;-2.44;87.71
20862;DHT22;10591;52.532;13.348;2022-12-17T14:42:14;-2.76;87.94
20862;DHT22;10591;52.532;13.348;2022-12-17T14:45:05;-2.72;88.02
20862;DHT22;10591;52.532;13.348;2022-12-17T14:47:37;-2.74;88.05
20862;DHT22;10591;52.532;13.348;2022-12-17T14:52:51;-2.58;87.84
20862;DHT22;10591;52.532;13.348;2022-12-17T14:55:37;-2.73;88.05
20862;DHT22;10591;52.532;13.348;2022-12-17T14:58:15;-2.86;88.35
20862;DHT22;10591;52.532;13.348;2022-12-17T15:00:52;-2.74;88.21
20862;DHT22;10591;52.532;13.348;2022-12-17T15:03:32;-2.66;88.24
20862;DHT22;10591;52.532;13.348;2022-12-17T15:06:07;-2.72;88.22
20862;DHT22;10591;52.532;13.348;2022-12-17T15:08:48;-2.54;88.12
20862;DHT22;10591;52.532;13.348;2022-12-17T15:11:19;-2.60;88.05
20862;DHT22;10591;52.532;13.348;2022-12-17T15:13:50;-2.38;87.69
20862;DHT22;10591;52.532;13.348;2022-12-17T15:16:23;-2.32;87.33
20862;DHT22;10591;52.532;13.348;2022-12-17T15:18:58;-2.58;87.45
20862;DHT22;10591;52.532;13.348;2022-12-17T15:21:29;-2.66;87.87
20862;DHT22;10591;52.532;13.348;2022-12-17T15:24:08;-2.70;87.77
20862;DHT22;10591;52.532;13.348;2022-12-17T15:26:39;-2.52;87.57
20862;DHT22;10591;52.532;13.348;2022-12-17T15:29:12;-2.58;87.59
20862;DHT22;10591;52.532;13.348;2022-12-17T15:31:45;-2.67;87.72
20862;DHT22;10591;52.532;13.348;2022-12-17T15:34:18;-2.56;87.53
20862;DHT22;10591;52.532;13.348;2022-12-17T15:36:49;-2.49;87.70
20862;DHT22;10591;52.532;13.348;2022-12-17T15:39:19;-2.39;87.52
20862;DHT22;10591;52.532;13.348;2022-12-17T15:41:52;-2.52;86.90
20862;DHT22;10591;52.532;13.348;2022-12-17T15:44:40;-2.60;87.46
20862;DHT22;10591;52.532;13.348;2022-12-17T15:47:13;-2.48;87.37
20862;DHT22;10591;52.532;13.348;2022-12-17T15:49:46;-2.44;87.34
20862;DHT22;10591;52.532;13.348;2022-12-17T15:52:16;-2.35;87.57
20862;DHT22;10591;52.532;13.348;2022-12-17T15:54:49;-2.40;87.03
20862;DHT22;10591;52.532;13.348;2022-12-17T15:57:21;-2.18;86.47
20862;DHT22;10591;52.532;13.348;2022-12-17T15:59:55;-2.52;85.83
20862;DHT22;10591;52.532;13.348;2022-12-17T16:02:27;-2.52;86.32
20862;DHT22;10591;52.532;13.348;2022-12-17T16:04:58;-2.62;86.79
20862;DHT22;10591;52.532;13.348;2022-12-17T16:07:28;-2.38;86.87
20862;DHT22;10591;52.532;13.348;2022-12-17T16:09:59;-2.62;86.53
20862;DHT22;10591;52.532;13.348;2022-12-17T16:12:32;-2.54;86.64
20862;DHT22;10591;52.532;13.348;2022-12-17T16:15:02;-2.56;86.48
20862;DHT22;10591;52.532;13.348;2022-12-17T16:17:34;-2.55;86.71
20862;DHT22;10591;52.532;13.348;2022-12-17T16:20:09;-2.52;86.51
20862;DHT22;10591;52.532;13.348;2022-12-17T16:22:39;-2.60;86.94
20862;DHT22;10591;52.532;13.348;2022-12-17T16:25:10;-2.21;86.34
20862;DHT22;10591;52.532;13.348;2022-12-17T16:27:41;-2.30;85.93
20862;DHT22;10591;52.532;13.348;2022-12-17T16:30:13;-2.26;85.85
20862;DHT22;10591;52.532;13.348;2022-12-17T16:32:45;-2.52;86.04
20862;DHT22;10591;52.532;13.348;2022-12-17T16:35:17;-2.38;86.23
20862;DHT22;10591;52.532;13.348;2022-12-17T16:37:50;-2.56;86.41
20862;DHT22;10591;52.532;13.348;2022-12-17T16:40:24;-2.62;86.70
20862;DHT22;10591;52.532;13.348;2022-12-17T16:42:55;-2.86;86.63
20862;DHT22;10591;52.532;13.348;2022-12-17T16:45:26;-2.64;86.69
20862;DHT22;10591;52.532;13.348;2022-12-17T16:47:57;-2.48;86.74
20862;DHT22;10591;52.532;13.348;2022-12-17T16:50:27;-2.50;86.56
20862;DHT22;10591;52.532;13.348;2022-12-17T16:53:00;-2.58;86.63
20862;DHT22;10591;52.532;13.348;2022-12-17T16:55:38;-2.53;86.19
20862;DHT22;10591;52.532;13.348;2022-12-17T16:58:06;-2.90;86.29
20862;DHT22;10591;52.532;13.348;2022-12-17T17:00:37;-2.61;86.19
20862;DHT22;10591;52.532;13.348;2022-12-17T17:03:08;-2.72;86.86
20862;DHT22;10591;52.532;13.348;2022-12-17T17:05:40;-2.60;86.75
20862;DHT22;10591;52.532;13.348;2022-12-17T17:08:11;-2.70;86.72
20862;DHT22;10591;52.532;13.348;2022-12-17T17:10:43;-2.72;86.89
20862;DHT22;10591;52.532;13.348;2022-12-17T17:13:15;-2.60;86.83
20862;DHT22;10591;52.532;13.348;2022-12-17T17:15:47;-2.65;86.61
20862;DHT22;10591;52.532;13.348;2022-12-17T17:18:17;-2.46;86.36
20862;DHT22;10591;52.532;13.348;2022-12-17T17:20:51;-2.52;86.13
20862;DHT22;10591;52.532;13.348;2022-12-17T17:23:23;-2.90;86.33
20862;DHT22;10591;52.532;13.348;2022-12-17T17:25:54;-2.76;86.83
20862;DHT22;10591;52.532;13.348;2022-12-17T17:28:27;-2.48;86.14
20862;DHT22;10591;52.532;13.348;2022-12-17T17:31:01;-2.54;85.87
20862;DHT22;10591;52.532;13.348;2022-12-17T17:33:34;-2.58;85.77
20862;DHT22;10591;52.532;13.348;2022-12-17T17:36:09;-2.52;85.79
20862;DHT22;10591;52.532;13.348;2022-12-17T17:38:41;-2.53;85.92
20862;DHT22;10591;52.532;13.348;2022-12-17T17:41:13;-2.53;85.94
20862;DHT22;10591;52.532;13.348;2022-12-17T17:43:44;-2.50;85.88
20862;DHT22;10591;52.532;13.348;2022-12-17T17:46:19;-2.74;85.99
20862;DHT22;10591;52.532;13.348;2022-12-17T17:48:53;-2.69;86.23
20862;DHT22;10591;52.532;13.348;2022-12-17T17:51:28;-2.86;86.68
20862;DHT22;10591;52.532;13.348;2022-12-17T17:54:03;-2.84;86.88
20862;DHT22;10591;52.532;13.348;2022-12-17T17:56:43;-2.64;86.65
20862;DHT22;10591;52.532;13.348;2022-12-17T17:59:17;-2.74;86.73
20862;DHT22;10591;52.532;13.348;2022-12-17T18:01:52;-2.82;86.65
20862;DHT22;10591;52.532;13.348;2022-12-17T18:04:25;-2.44;86.44
20862;DHT22;10591;52.532;13.348;2022-12-17T18:06:56;-2.77;86.28